sensor_id;sensor_type;location;lat;lon;timestamp;pressure;altitude;pressure_sealevel;temperature;humidity
70027;BME280;57506;50.092;15.804;2023-02-21T00:01:52;98962.97;;;9.74;87.01
70027;BME280;57506;50.092;15.804;2023-02-21T00:04:36;98951.53;;;9.66;87.25
70027;BME280;57506;50.092;15.804;2023-02-21T00:07:21;98962.78;;;9.76;86.61
70027;BME280;57506;50.092;15.804;2023-02-21T00:10:06;98969.16;;;9.68;88.73
70027;BME280;57506;50.092;15.804;2023-02-21T00:12:51;98974.22;;;9.57;89.31
70027;BME280;57506;50.092;15.804;2023-02-21T00:15:34;98951.88;;;9.56;88.41
70027;BME280;57506;50.092;15.804;2023-02-21T00:18:18;98968.97;;;9.70;87.70
70027;BME280;57506;50.092;15.804;2023-02-21T00:21:03;98967.94;;;9.71;87.89
70027;BME280;57506;50.092;15.804;2023-02-21T00:23:48;98961.47;;;9.65;88.52
70027;BME280;57506;50.092;15.804;2023-02-21T00:26:35;98967.75;;;9.72;87.19
70027;BME280;57506;50.092;15.804;2023-02-21T00:29:18;98972.53;;;9.77;87.50
70027;BME280;57506;50.092;15.804;2023-02-21T00:32:03;98961.53;;;9.72;87.43
70027;BME280;57506;50.092;15.804;2023-02-21T00:34:46;98952.00;;;9.69;87.48
70027;BME280;57506;50.092;15.804;2023-02-21T00:37:30;98963.50;;;9.63;89.22
70027;BME280;57506;50.092;15.804;2023-02-21T00:40:15;98926.97;;;9.47;88.81
70027;BME280;57506;50.092;15.804;2023-02-21T00:42:59;98941.44;;;9.46;90.15
70027;BME280;57506;50.092;15.804;2023-02-21T00:45:43;98947.44;;;9.48;89.52
70027;BME280;57506;50.092;15.804;2023-02-21T00:48:27;98958.78;;;9.44;90.11
70027;BME280;57506;50.092;15.804;2023-02-21T00:51:11;98955.84;;;9.39;90.83
70027;BME280;57506;50.092;15.804;2023-02-21T00:53:55;98956.91;;;9.44;90.40
70027;BME280;57506;50.092;15.804;2023-02-21T00:56:39;98953.84;;;9.47;90.98
70027;BME280;57506;50.092;15.804;2023-02-21T00:59:23;98954.38;;;9.36;91.47
70027;BME280;57506;50.092;15.804;2023-02-21T01:02:07;98944.63;;;9.35;91.20
70027;BME280;57506;50.092;15.804;2023-02-21T01:04:51;98961.66;;;9.42;90.50
70027;BME280;57506;50.092;15.804;2023-02-21T01:07:35;98951.16;;;9.47;90.76
70027;BME280;57506;50.092;15.804;2023-02-21T01:10:21;98959.75;;;9.36;91.84
70027;BME280;57506;50.092;15.804;2023-02-21T01:13:05;98942.31;;;9.32;92.19
70027;BME280;57506;50.092;15.804;2023-02-21T01:15:49;98947.06;;;9.30;91.68
70027;BME280;57506;50.092;15.804;2023-02-21T01:18:33;98956.41;;;9.34;92.18
70027;BME280;57506;50.092;15.804;2023-02-21T01:21:18;98951.22;;;9.33;92.25
70027;BME280;57506;50.092;15.804;2023-02-21T01:24:03;98956.94;;;9.23;92.95
70027;BME280;57506;50.092;15.804;2023-02-21T01:26:48;98957.13;;;9.22;93.26
70027;BME280;57506;50.092;15.804;2023-02-21T01:29:32;98953.72;;;9.34;91.78
70027;BME280;57506;50.092;15.804;2023-02-21T01:32:16;98946.84;;;9.10;93.36
70027;BME280;57506;50.092;15.804;2023-02-21T01:35:00;98938.22;;;9.15;92.99
70027;BME280;57506;50.092;15.804;2023-02-21T01:37:44;98947.94;;;9.16;93.45
70027;BME280;57506;50.092;15.804;2023-02-21T01:40:29;98934.75;;;9.00;93.77
70027;BME280;57506;50.092;15.804;2023-02-21T01:43:15;98951.00;;;9.13;93.97
70027;BME280;57506;50.092;15.804;2023-02-21T01:45:59;98953.84;;;9.05;94.13
70027;BME280;57506;50.092;15.804;2023-02-21T01:48:44;98948.94;;;8.94;95.63
70027;BME280;57506;50.092;15.804;2023-02-21T01:51:33;98933.88;;;8.93;94.19
70027;BME280;57506;50.092;15.804;2023-02-21T01:54:19;98955.38;;;8.93;95.93
70027;BME280;57506;50.092;15.804;2023-02-21T01:57:04;98956.09;;;8.87;95.98
70027;BME280;57506;50.092;15.804;2023-02-21T01:59:50;98948.13;;;8.78;96.51
70027;BME280;57506;50.092;15.804;2023-02-21T02:05:28;98925.38;;;8.74;96.27
70027;BME280;57506;50.092;15.804;2023-02-21T02:08:12;98927.69;;;8.63;97.52
70027;BME280;57506;50.092;15.804;2023-02-21T02:14:38;98933.06;;;8.63;98.09
70027;BME280;57506;50.092;15.804;2023-02-21T02:17:58;98928.34;;;8.65;97.80
70027;BME280;57506;50.092;15.804;2023-02-21T02:20:23;98922.97;;;8.65;98.04
70027;BME280;57506;50.092;15.804;2023-02-21T02:34:32;98911.88;;;8.53;99.37
70027;BME280;57506;50.092;15.804;2023-02-21T02:37:23;98931.81;;;8.59;99.25
70027;BME280;57506;50.092;15.804;2023-02-21T02:40:05;98917.59;;;8.65;98.73
70027;BME280;57506;50.092;15.804;2023-02-21T02:43:09;98925.66;;;8.65;99.51
70027;BME280;57506;50.092;15.804;2023-02-21T02:45:45;98920.00;;;8.74;98.32
70027;BME280;57506;50.092;15.804;2023-02-21T02:48:18;98925.28;;;8.68;98.70
70027;BME280;57506;50.092;15.804;2023-02-21T02:50:47;98910.75;;;8.62;98.85
70027;BME280;57506;50.092;15.804;2023-02-21T02:53:19;98903.81;;;8.53;99.73
70027;BME280;57506;50.092;15.804;2023-02-21T02:55:52;98923.06;;;8.71;99.54
70027;BME280;57506;50.092;15.804;2023-02-21T02:58:21;98907.13;;;8.70;99.79
70027;BME280;57506;50.092;15.804;2023-02-21T03:01:01;98885.13;;;8.45;100.00
70027;BME280;57506;50.092;15.804;2023-02-21T03:03:36;98922.69;;;8.74;99.26
70027;BME280;57506;50.092;15.804;2023-02-21T03:09:13;98910.47;;;8.72;99.53
70027;BME280;57506;50.092;15.804;2023-02-21T03:12:03;98910.66;;;8.70;99.79
70027;BME280;57506;50.092;15.804;2023-02-21T03:14:45;98902.13;;;8.67;100.00
70027;BME280;57506;50.092;15.804;2023-02-21T03:17:12;98914.00;;;8.72;99.91
70027;BME280;57506;50.092;15.804;2023-02-21T03:19:43;98913.84;;;8.81;98.79
70027;BME280;57506;50.092;15.804;2023-02-21T03:22:14;98908.03;;;8.77;99.42
70027;BME280;57506;50.092;15.804;2023-02-21T03:24:42;98916.09;;;8.77;100.00
70027;BME280;57506;50.092;15.804;2023-02-21T03:27:11;98916.34;;;8.82;99.39
70027;BME280;57506;50.092;15.804;2023-02-21T03:29:39;98877.06;;;8.60;99.95
70027;BME280;57506;50.092;15.804;2023-02-21T03:34:38;98906.75;;;8.73;99.76
70027;BME280;57506;50.092;15.804;2023-02-21T03:37:09;98915.16;;;8.85;99.72
70027;BME280;57506;50.092;15.804;2023-02-21T03:39:35;98913.41;;;8.77;100.00
70027;BME280;57506;50.092;15.804;2023-02-21T03:42:01;98909.78;;;8.85;100.00
70027;BME280;57506;50.092;15.804;2023-02-21T03:44:26;98907.56;;;8.88;99.97
70027;BME280;57506;50.092;15.804;2023-02-21T03:46:52;98888.28;;;8.85;99.41
70027;BME280;57506;50.092;15.804;2023-02-21T03:49:17;98912.28;;;8.86;100.00
70027;BME280;57506;50.092;15.804;2023-02-21T03:51:43;98883.22;;;8.75;99.96
70027;BME280;57506;50.092;15.804;2023-02-21T03:54:08;98887.06;;;8.87;100.00
70027;BME280;57506;50.092;15.804;2023-02-21T03:56:34;98889.56;;;8.89;99.85
70027;BME280;57506;50.092;15.804;2023-02-21T03:59:00;98912.88;;;9.03;99.50
70027;BME280;57506;50.092;15.804;2023-02-21T04:01:25;98901.47;;;9.01;99.83
70027;BME280;57506;50.092;15.804;2023-02-21T04:03:51;98900.84;;;8.99;100.00
70027;BME280;57506;50.092;15.804;2023-02-21T04:06:16;98904.78;;;8.82;100.00
70027;BME280;57506;50.092;15.804;2023-02-21T04:08:42;98889.44;;;8.97;100.00
70027;BME280;57506;50.092;15.804;2023-02-21T04:11:07;98873.13;;;8.98;99.91
70027;BME280;57506;50.092;15.804;2023-02-21T04:13:33;98875.75;;;8.92;100.00
70027;BME280;57506;50.092;15.804;2023-02-21T04:15:58;98889.91;;;9.00;100.00
70027;BME280;57506;50.092;15.804;2023-02-21T04:18:24;98886.63;;;9.05;100.00
70027;BME280;57506;50.092;15.804;2023-02-21T04:20:51;98885.63;;;9.06;100.00
70027;BME280;57506;50.092;15.804;2023-02-21T04:23:20;98888.03;;;9.01;100.00
70027;BME280;57506;50.092;15.804;2023-02-21T04:25:46;98898.78;;;9.01;100.00
70027;BME280;57506;50.092;15.804;2023-02-21T04:28:12;98890.09;;;8.99;100.00
70027;BME280;57506;50.092;15.804;2023-02-21T04:30:37;98894.56;;;8.92;100.00
70027;BME280;57506;50.092;15.804;2023-02-21T04:33:03;98903.25;;;8.94;100.00
70027;BME280;57506;50.092;15.804;2023-02-21T04:35:29;98890.59;;;8.88;100.00
70027;BME280;57506;50.092;15.804;2023-02-21T04:37:54;98869.00;;;8.81;100.00
70027;BME280;57506;50.092;15.804;2023-02-21T04:40:20;98880.31;;;8.91;100.00
70027;BME280;57506;50.092;15.804;2023-02-21T04:42:45;98898.19;;;8.84;100.00
70027;BME280;57506;50.092;15.804;2023-02-21T04:45:11;98892.19;;;8.82;100.00
70027;BME280;57506;50.092;15.804;2023-02-21T04:47:36;98886.53;;;8.77;100.00
70027;BME280;57506;50.092;15.804;2023-02-21T04:50:03;98905.50;;;8.90;100.00
70027;BME280;57506;50.092;15.804;2023-02-21T04:52:28;98906.06;;;8.86;100.00
70027;BME280;57506;50.092;15.804;2023-02-21T04:54:54;98880.59;;;8.82;100.00
70027;BME280;57506;50.092;15.804;2023-02-21T04:57:20;98876.88;;;8.83;100.00
70027;BME280;57506;50.092;15.804;2023-02-21T04:59:46;98895.59;;;8.91;100.00
70027;BME280;57506;50.092;15.804;2023-02-21T05:02:11;98889.19;;;8.92;100.00
70027;BME280;57506;50.092;15.804;2023-02-21T05:04:37;98898.28;;;8.91;100.00
70027;BME280;57506;50.092;15.804;2023-02-21T05:07:04;98892.44;;;8.87;100.00
70027;BME280;57506;50.092;15.804;2023-02-21T05:09:30;98906.06;;;8.86;100.00
70027;BME280;57506;50.092;15.804;2023-02-21T05:11:56;98912.38;;;8.93;100.00
70027;BME280;57506;50.092;15.804;2023-02-21T05:14:21;98916.91;;;8.92;100.00
70027;BME280;57506;50.092;15.804;2023-02-21T05:16:47;98918.22;;;8.82;100.00
70027;BME280;57506;50.092;15.804;2023-02-21T05:19:18;98925.41;;;8.96;100.00
70027;BME280;57506;50.092;15.804;2023-02-21T05:21:54;98913.84;;;8.81;100.00
70027;BME280;57506;50.092;15.804;2023-02-21T05:24:20;98933.22;;;8.91;100.00
70027;BME280;57506;50.092;15.804;2023-02-21T05:26:45;98927.19;;;8.89;100.00
70027;BME280;57506;50.092;15.804;2023-02-21T05:29:11;98918.22;;;8.82;100.00
70027;BME280;57506;50.092;15.804;2023-02-21T05:31:36;98912.78;;;8.75;100.00
70027;BME280;57506;50.092;15.804;2023-02-21T05:34:01;98914.44;;;8.76;100.00
70027;BME280;57506;50.092;15.804;2023-02-21T05:36:27;98920.38;;;8.71;100.00
70027;BME280;57506;50.092;15.804;2023-02-21T05:38:54;98900.09;;;8.69;100.00
70027;BME280;57506;50.092;15.804;2023-02-21T05:41:20;98912.50;;;8.70;100.00
70027;BME280;57506;50.092;15.804;2023-02-21T05:43:47;98919.22;;;8.81;100.00
70027;BME280;57506;50.092;15.804;2023-02-21T05:46:24;98915.00;;;8.71;100.00
70027;BME280;57506;50.092;15.804;2023-02-21T05:48:51;98907.59;;;8.73;100.00
70027;BME280;57506;50.092;15.804;2023-02-21T05:51:19;98897.09;;;8.78;100.00
70027;BME280;57506;50.092;15.804;2023-02-21T05:53:45;98897.22;;;8.70;100.00
70027;BME280;57506;50.092;15.804;2023-02-21T05:56:11;98906.06;;;8.86;100.00
70027;BME280;57506;50.092;15.804;2023-02-21T05:58:36;98904.13;;;8.80;100.00
70027;BME280;57506;50.092;15.804;2023-02-21T06:01:02;98907.59;;;8.73;100.00
70027;BME280;57506;50.092;15.804;2023-02-21T06:03:28;98915.66;;;8.73;100.00
70027;BME280;57506;50.092;15.804;2023-02-21T06:05:53;98909.63;;;8.71;100.00
70027;BME280;57506;50.092;15.804;2023-02-21T06:08:19;98903.59;;;8.69;100.00
70027;BME280;57506;50.092;15.804;2023-02-21T06:10:44;98890.19;;;8.69;100.00
70027;BME280;57506;50.092;15.804;2023-02-21T06:13:10;98925.25;;;8.83;100.00
70027;BME280;57506;50.092;15.804;2023-02-21T06:15:36;98925.91;;;8.85;100.00
70027;BME280;57506;50.092;15.804;2023-02-21T06:18:01;98918.41;;;8.80;100.00
70027;BME280;57506;50.092;15.804;2023-02-21T06:20:27;98923.59;;;8.82;100.00
70027;BME280;57506;50.092;15.804;2023-02-21T06:22:52;98922.75;;;8.81;100.00
70027;BME280;57506;50.092;15.804;2023-02-21T06:25:18;98929.16;;;8.80;100.00
70027;BME280;57506;50.092;15.804;2023-02-21T06:27:43;98928.59;;;8.85;100.00
70027;BME280;57506;50.092;15.804;2023-02-21T06:30:09;98912.13;;;8.73;100.00
70027;BME280;57506;50.092;15.804;2023-02-21T06:32:35;98921.91;;;8.81;100.00
70027;BME280;57506;50.092;15.804;2023-02-21T06:35:01;98930.63;;;8.83;100.00
70027;BME280;57506;50.092;15.804;2023-02-21T06:37:27;98927.47;;;8.79;100.00
70027;BME280;57506;50.092;15.804;2023-02-21T06:39:53;98918.59;;;8.78;100.00
70027;BME280;57506;50.092;15.804;2023-02-21T06:42:18;98928.50;;;8.93;100.00
70027;BME280;57506;50.092;15.804;2023-02-21T06:44:48;98929.59;;;8.84;100.00
70027;BME280;57506;50.092;15.804;2023-02-21T06:47:14;98934.06;;;8.91;100.00
70027;BME280;57506;50.092;15.804;2023-02-21T06:49:41;98935.91;;;8.91;100.00
70027;BME280;57506;50.092;15.804;2023-02-21T06:52:07;98944.03;;;8.97;100.00
70027;BME280;57506;50.092;15.804;2023-02-21T06:54:33;98933.88;;;8.93;100.00
70027;BME280;57506;50.092;15.804;2023-02-21T06:56:58;98937.16;;;8.95;100.00
70027;BME280;57506;50.092;15.804;2023-02-21T06:59:28;98944.47;;;9.01;100.00
70027;BME280;57506;50.092;15.804;2023-02-21T07:01:55;98950.50;;;9.03;100.00
70027;BME280;57506;50.092;15.804;2023-02-21T07:04:21;98934.38;;;9.03;100.00
70027;BME280;57506;50.092;15.804;2023-02-21T07:06:46;98944.09;;;9.04;100.00
70027;BME280;57506;50.092;15.804;2023-02-21T07:09:12;98937.91;;;9.03;100.00
70027;BME280;57506;50.092;15.804;2023-02-21T07:11:37;98924.19;;;8.98;100.00
70027;BME280;57506;50.092;15.804;2023-02-21T07:14:03;98942.47;;;9.24;100.00
70027;BME280;57506;50.092;15.804;2023-02-21T07:16:29;98951.56;;;9.23;100.00
70027;BME280;57506;50.092;15.804;2023-02-21T07:18:54;98920.56;;;9.06;100.00
70027;BME280;57506;50.092;15.804;2023-02-21T07:21:20;98943.50;;;9.23;100.00
70027;BME280;57506;50.092;15.804;2023-02-21T07:23:46;98955.28;;;9.22;100.00
70027;BME280;57506;50.092;15.804;2023-02-21T07:26:12;98955.91;;;9.24;100.00
70027;BME280;57506;50.092;15.804;2023-02-21T07:28:38;98951.00;;;9.13;100.00
70027;BME280;57506;50.092;15.804;2023-02-21T07:31:04;98970.63;;;9.28;100.00
70027;BME280;57506;50.092;15.804;2023-02-21T07:33:30;98947.84;;;9.24;100.00
70027;BME280;57506;50.092;15.804;2023-02-21T07:35:55;98966.25;;;9.27;100.00
70027;BME280;57506;50.092;15.804;2023-02-21T07:38:22;98958.78;;;9.23;100.00
70027;BME280;57506;50.092;15.804;2023-02-21T07:40:48;98954.69;;;9.27;100.00
70027;BME280;57506;50.092;15.804;2023-02-21T07:43:15;98947.06;;;9.30;100.00
70027;BME280;57506;50.092;15.804;2023-02-21T07:45:40;98952.06;;;9.33;100.00
70027;BME280;57506;50.092;15.804;2023-02-21T07:48:06;98939.19;;;9.29;100.00
70027;BME280;57506;50.092;15.804;2023-02-21T07:50:31;98939.94;;;9.44;100.00
70027;BME280;57506;50.092;15.804;2023-02-21T07:52:57;98928.13;;;9.38;100.00
70027;BME280;57506;50.092;15.804;2023-02-21T07:55:24;98945.53;;;9.42;100.00
70027;BME280;57506;50.092;15.804;2023-02-21T07:57:49;98957.19;;;9.50;100.00
70027;BME280;57506;50.092;15.804;2023-02-21T08:00:15;98937.06;;;9.45;100.00
70027;BME280;57506;50.092;15.804;2023-02-21T08:02:48;98948.22;;;9.64;100.00
70027;BME280;57506;50.092;15.804;2023-02-21T08:05:14;98951.91;;;9.63;100.00
70027;BME280;57506;50.092;15.804;2023-02-21T08:07:40;98952.81;;;9.70;100.00
70027;BME280;57506;50.092;15.804;2023-02-21T08:10:06;98946.59;;;9.69;100.00
70027;BME280;57506;50.092;15.804;2023-02-21T08:12:32;98943.53;;;9.72;100.00
70027;BME280;57506;50.092;15.804;2023-02-21T08:14:57;98939.84;;;9.80;100.00
70027;BME280;57506;50.092;15.804;2023-02-21T08:17:25;98943.00;;;9.83;100.00
70027;BME280;57506;50.092;15.804;2023-02-21T08:19:50;98957.13;;;9.92;99.67
70027;BME280;57506;50.092;15.804;2023-02-21T08:22:16;98960.72;;;9.99;100.00
70027;BME280;57506;50.092;15.804;2023-02-21T08:24:42;98968.41;;;10.02;99.76
70027;BME280;57506;50.092;15.804;2023-02-21T08:27:07;98958.03;;;9.99;100.00
70027;BME280;57506;50.092;15.804;2023-02-21T08:29:33;98967.19;;;10.05;99.02
70027;BME280;57506;50.092;15.804;2023-02-21T08:31:58;98975.34;;;10.18;99.19
70027;BME280;57506;50.092;15.804;2023-02-21T08:34:24;98972.97;;;10.30;97.68
70027;BME280;57506;50.092;15.804;2023-02-21T08:36:50;98977.56;;;10.36;97.57
70027;BME280;57506;50.092;15.804;2023-02-21T08:39:15;98975.28;;;10.39;98.26
70027;BME280;57506;50.092;15.804;2023-02-21T08:41:43;98962.56;;;10.61;97.24
70027;BME280;57506;50.092;15.804;2023-02-21T08:44:11;98967.56;;;10.64;96.77
70027;BME280;57506;50.092;15.804;2023-02-21T08:46:37;98971.75;;;10.73;96.44
70027;BME280;57506;50.092;15.804;2023-02-21T08:49:06;98975.31;;;10.80;94.61
70027;BME280;57506;50.092;15.804;2023-02-21T08:51:32;98982.13;;;10.76;95.56
70027;BME280;57506;50.092;15.804;2023-02-21T08:53:59;98993.31;;;10.73;95.65
70027;BME280;57506;50.092;15.804;2023-02-21T08:56:26;98987.72;;;10.68;96.51
70027;BME280;57506;50.092;15.804;2023-02-21T08:58:52;98976.31;;;10.66;95.62
70027;BME280;57506;50.092;15.804;2023-02-21T09:01:19;98989.38;;;10.69;96.33
70027;BME280;57506;50.092;15.804;2023-02-21T09:03:45;98984.00;;;10.69;96.34
70027;BME280;57506;50.092;15.804;2023-02-21T09:06:12;98986.75;;;10.82;97.89
70027;BME280;57506;50.092;15.804;2023-02-21T09:08:38;98995.06;;;10.88;96.47
70027;BME280;57506;50.092;15.804;2023-02-21T09:11:05;98989.25;;;10.84;96.55
70027;BME280;57506;50.092;15.804;2023-02-21T09:13:31;98990.22;;;10.76;96.80
70027;BME280;57506;50.092;15.804;2023-02-21T09:15:58;98991.91;;;10.77;97.80
70027;BME280;57506;50.092;15.804;2023-02-21T09:18:24;98991.88;;;10.71;96.57
70027;BME280;57506;50.092;15.804;2023-02-21T09:20:50;99001.59;;;10.72;96.41
70027;BME280;57506;50.092;15.804;2023-02-21T09:23:20;98997.84;;;10.66;97.03
70027;BME280;57506;50.092;15.804;2023-02-21T09:25:46;98998.88;;;10.65;96.93
70027;BME280;57506;50.092;15.804;2023-02-21T09:28:13;99017.78;;;10.72;96.81
70027;BME280;57506;50.092;15.804;2023-02-21T09:30:39;99005.09;;;10.66;98.39
70027;BME280;57506;50.092;15.804;2023-02-21T09:33:05;99016.91;;;10.65;97.67
70027;BME280;57506;50.092;15.804;2023-02-21T09:35:31;99006.34;;;10.63;98.75
70027;BME280;57506;50.092;15.804;2023-02-21T09:37:57;99013.38;;;10.64;98.49
70027;BME280;57506;50.092;15.804;2023-02-21T09:42:53;99012.75;;;10.62;97.58
70027;BME280;57506;50.092;15.804;2023-02-21T09:45:27;99007.13;;;10.57;98.42
70027;BME280;57506;50.092;15.804;2023-02-21T09:48:00;99010.69;;;10.64;98.28
70027;BME280;57506;50.092;15.804;2023-02-21T09:50:31;99017.34;;;10.68;98.17
70027;BME280;57506;50.092;15.804;2023-02-21T09:52:59;99003.25;;;10.66;97.84
70027;BME280;57506;50.092;15.804;2023-02-21T09:55:38;99009.72;;;10.78;97.13
70027;BME280;57506;50.092;15.804;2023-02-21T09:58:13;98997.03;;;10.66;97.55
70027;BME280;57506;50.092;15.804;2023-02-21T10:00:39;99013.63;;;10.69;98.93
70027;BME280;57506;50.092;15.804;2023-02-21T10:03:34;99015.31;;;10.70;99.39
70027;BME280;57506;50.092;15.804;2023-02-21T10:06:38;99017.31;;;10.62;99.96
70027;BME280;57506;50.092;15.804;2023-02-21T10:15:16;99035.97;;;10.63;98.92
70027;BME280;57506;50.092;15.804;2023-02-21T10:20:56;99037.06;;;10.69;98.87
70027;BME280;57506;50.092;15.804;2023-02-21T10:25:57;99013.59;;;10.63;97.91
70027;BME280;57506;50.092;15.804;2023-02-21T10:28:27;99029.00;;;10.75;98.77
70027;BME280;57506;50.092;15.804;2023-02-21T10:31:09;99039.25;;;10.86;99.70
70027;BME280;57506;50.092;15.804;2023-02-21T10:33:37;99034.06;;;10.92;98.67
70027;BME280;57506;50.092;15.804;2023-02-21T10:36:16;99013.31;;;10.85;98.26
70027;BME280;57506;50.092;15.804;2023-02-21T10:38:52;99019.72;;;10.84;98.22
70027;BME280;57506;50.092;15.804;2023-02-21T10:41:18;99025.34;;;10.90;97.82
70027;BME280;57506;50.092;15.804;2023-02-21T10:43:47;99015.19;;;10.92;98.90
70027;BME280;57506;50.092;15.804;2023-02-21T10:46:20;99021.22;;;10.94;97.67
70027;BME280;57506;50.092;15.804;2023-02-21T10:48:52;99025.38;;;10.96;98.71
70027;BME280;57506;50.092;15.804;2023-02-21T10:51:33;99031.25;;;11.13;97.92
70027;BME280;57506;50.092;15.804;2023-02-21T10:54:20;99006.59;;;11.16;98.70
70027;BME280;57506;50.092;15.804;2023-02-21T10:56:47;99029.63;;;11.25;96.96
70027;BME280;57506;50.092;15.804;2023-02-21T10:59:23;99025.09;;;11.39;97.08
70027;BME280;57506;50.092;15.804;2023-02-21T11:01:51;99028.88;;;11.44;96.85
70027;BME280;57506;50.092;15.804;2023-02-21T11:07:08;99008.97;;;11.58;94.77
70027;BME280;57506;50.092;15.804;2023-02-21T11:12:15;99015.69;;;11.76;94.38
70027;BME280;57506;50.092;15.804;2023-02-21T11:17:22;99016.03;;;11.60;94.28
70027;BME280;57506;50.092;15.804;2023-02-21T11:27:37;99018.09;;;11.44;95.37
70027;BME280;57506;50.092;15.804;2023-02-21T11:30:15;98995.88;;;11.42;95.97
70027;BME280;57506;50.092;15.804;2023-02-21T11:32:42;98995.69;;;11.50;96.50
70027;BME280;57506;50.092;15.804;2023-02-21T11:37:55;98990.47;;;11.36;95.49
70027;BME280;57506;50.092;15.804;2023-02-21T11:40:44;98998.13;;;11.32;96.55
70027;BME280;57506;50.092;15.804;2023-02-21T11:43:31;98992.94;;;11.37;97.16
70027;BME280;57506;50.092;15.804;2023-02-21T11:49:04;98991.53;;;11.54;96.37
70027;BME280;57506;50.092;15.804;2023-02-21T11:51:39;98986.97;;;11.62;95.35
70027;BME280;57506;50.092;15.804;2023-02-21T11:54:06;98977.84;;;11.63;95.69
70027;BME280;57506;50.092;15.804;2023-02-21T11:57:01;98982.00;;;11.65;95.97
70027;BME280;57506;50.092;15.804;2023-02-21T11:59:45;98983.03;;;11.71;94.69
70027;BME280;57506;50.092;15.804;2023-02-21T12:02:23;98976.19;;;11.62;94.61
70027;BME280;57506;50.092;15.804;2023-02-21T12:15:21;98971.19;;;11.58;92.69
70027;BME280;57506;50.092;15.804;2023-02-21T12:25:44;98980.13;;;11.52;94.10
70027;BME280;57506;50.092;15.804;2023-02-21T12:28:28;98983.22;;;11.56;94.15
70027;BME280;57506;50.092;15.804;2023-02-21T12:30:59;98969.53;;;11.57;95.52
70027;BME280;57506;50.092;15.804;2023-02-21T12:33:42;98969.94;;;11.54;94.51
70027;BME280;57506;50.092;15.804;2023-02-21T12:37:26;98964.16;;;11.64;93.35
70027;BME280;57506;50.092;15.804;2023-02-21T12:42:09;98970.34;;;11.58;93.71
70027;BME280;57506;50.092;15.804;2023-02-21T12:48:09;98971.19;;;11.45;93.13
70027;BME280;57506;50.092;15.804;2023-02-21T12:50:40;98965.56;;;11.40;94.46
70027;BME280;57506;50.092;15.804;2023-02-21T12:53:16;98991.94;;;11.45;95.19
70027;BME280;57506;50.092;15.804;2023-02-21T12:55:47;98983.00;;;11.44;93.85
70027;BME280;57506;50.092;15.804;2023-02-21T12:58:42;99000.06;;;11.51;93.53
70027;BME280;57506;50.092;15.804;2023-02-21T13:01:15;98970.94;;;11.40;93.84
70027;BME280;57506;50.092;15.804;2023-02-21T13:06:45;98975.31;;;11.41;94.64
70027;BME280;57506;50.092;15.804;2023-02-21T13:09:34;98962.88;;;11.47;96.08
70027;BME280;57506;50.092;15.804;2023-02-21T13:14:46;98961.41;;;11.44;95.43
70027;BME280;57506;50.092;15.804;2023-02-21T13:17:14;98965.13;;;11.37;94.61
70027;BME280;57506;50.092;15.804;2023-02-21T13:19:54;98963.06;;;11.32;95.50
70027;BME280;57506;50.092;15.804;2023-02-21T13:28:35;98966.13;;;11.22;96.39
70027;BME280;57506;50.092;15.804;2023-02-21T13:31:05;98970.69;;;11.22;96.34
70027;BME280;57506;50.092;15.804;2023-02-21T13:33:43;98975.69;;;11.18;95.73
70027;BME280;57506;50.092;15.804;2023-02-21T13:41:37;98976.53;;;11.19;94.27
70027;BME280;57506;50.092;15.804;2023-02-21T13:44:07;98986.03;;;11.21;94.97
70027;BME280;57506;50.092;15.804;2023-02-21T13:52:34;98984.81;;;11.17;95.21
70027;BME280;57506;50.092;15.804;2023-02-21T14:03:04;98979.38;;;11.11;94.62
70027;BME280;57506;50.092;15.804;2023-02-21T14:18:41;98974.97;;;10.97;95.70
70027;BME280;57506;50.092;15.804;2023-02-21T14:23:59;98966.94;;;11.03;95.40
70027;BME280;57506;50.092;15.804;2023-02-21T14:26:52;98978.13;;;11.07;95.51
70027;BME280;57506;50.092;15.804;2023-02-21T14:45:10;98973.94;;;10.98;96.20
70027;BME280;57506;50.092;15.804;2023-02-21T15:09:21;98968.56;;;10.98;95.89
70027;BME280;57506;50.092;15.804;2023-02-21T15:11:47;98969.78;;;10.95;95.34
70027;BME280;57506;50.092;15.804;2023-02-21T15:14:22;98962.53;;;10.96;95.40
70027;BME280;57506;50.092;15.804;2023-02-21T15:17:00;98958.56;;;10.92;95.69
70027;BME280;57506;50.092;15.804;2023-02-21T15:19:34;98963.97;;;10.92;95.91
70027;BME280;57506;50.092;15.804;2023-02-21T15:22:23;98973.72;;;10.93;95.64
70027;BME280;57506;50.092;15.804;2023-02-21T15:25:21;98978.47;;;10.91;96.20
70027;BME280;57506;50.092;15.804;2023-02-21T15:30:16;98975.56;;;10.85;96.75
70027;BME280;57506;50.092;15.804;2023-02-21T15:32:43;98967.03;;;10.82;96.52
70027;BME280;57506;50.092;15.804;2023-02-21T15:35:29;98973.47;;;10.81;97.88
70027;BME280;57506;50.092;15.804;2023-02-21T15:37:57;98973.03;;;10.77;97.29
70027;BME280;57506;50.092;15.804;2023-02-21T15:40:24;98965.13;;;10.69;98.42
70027;BME280;57506;50.092;15.804;2023-02-21T15:42:53;98963.22;;;10.63;98.54
70027;BME280;57506;50.092;15.804;2023-02-21T15:45:27;98974.69;;;10.78;97.83
70027;BME280;57506;50.092;15.804;2023-02-21T15:47:54;98978.63;;;10.76;96.90
70027;BME280;57506;50.092;15.804;2023-02-21T15:50:31;98979.00;;;10.73;98.65
70027;BME280;57506;50.092;15.804;2023-02-21T15:53:18;98976.88;;;10.62;98.46
70027;BME280;57506;50.092;15.804;2023-02-21T15:55:45;98981.94;;;10.71;98.24
70027;BME280;57506;50.092;15.804;2023-02-21T15:58:24;98991.25;;;10.69;98.26
70027;BME280;57506;50.092;15.804;2023-02-21T16:01:07;98990.16;;;10.63;98.72
70027;BME280;57506;50.092;15.804;2023-02-21T16:03:40;99001.13;;;10.55;99.54
70027;BME280;57506;50.092;15.804;2023-02-21T16:08:51;98985.34;;;10.52;99.20
70027;BME280;57506;50.092;15.804;2023-02-21T16:11:17;98999.03;;;10.57;99.15
70027;BME280;57506;50.092;15.804;2023-02-21T16:13:44;98966.16;;;10.34;99.79